< Typhoon 196516 1965 Season Typhoon 196518 >
Typhoon 196517 (LUCY)
General InformationTrack Information on Google Maps || Disaster Info.ResourceGoogle EarthGE AnimationAtom FeedGeoJSON
Detalied Best Track (Time Zone = UTC)
Year Month Day Hour Lat. Long. Pressure (hPa) Wind (kt) Class Image Chart
1965 8 14 12 11.8 173.4 1008 0 2 -- Chart
1965 8 14 18 13.1 172.6 1006 0 2 -- Chart
1965 8 15 00 14.3 171.7 1004 0 2 -- Chart
1965 8 15 06 15.1 170.4 1000 0 9 -- Chart
1965 8 15 12 15.9 169.2 994 0 9 -- Chart
1965 8 15 18 16.7 167.9 994 0 9 -- Chart
1965 8 16 00 17.4 166.7 992 0 9 -- Chart
1965 8 16 06 18.2 165.4 990 0 9 -- Chart
1965 8 16 12 19.3 163.5 990 0 9 -- Chart
1965 8 16 18 20.3 161.6 990 0 9 -- Chart
1965 8 17 00 21.4 159.6 990 0 9 -- Chart
1965 8 17 06 22.5 157.6 990 0 9 -- Chart
1965 8 17 12 23.4 155.6 980 0 9 -- Chart
1965 8 17 18 24.2 153.6 970 0 9 -- Chart
1965 8 18 00 24.9 151.6 970 0 9 -- Chart
1965 8 18 06 25.4 149.6 960 0 9 -- Chart
1965 8 18 12 26.0 147.6 960 0 9 -- Chart
1965 8 18 18 26.5 145.6 950 0 9 -- Chart
1965 8 19 00 26.7 144.0 945 0 9 -- Chart
1965 8 19 06 27.0 143.0 945 0 9 -- Chart
1965 8 19 12 27.5 142.0 945 0 9 -- Chart
1965 8 19 18 28.0 141.0 945 0 9 -- Chart
1965 8 20 00 28.6 140.3 945 0 9 -- Chart
1965 8 20 06 29.3 139.7 945 0 9 -- Chart
1965 8 20 12 29.7 139.5 940 0 9 -- Chart
1965 8 20 18 30.7 139.1 940 0 9 -- Chart
1965 8 21 00 31.4 138.0 950 0 9 -- Chart
1965 8 21 06 31.5 137.5 950 0 9 -- Chart
1965 8 21 12 31.7 137.4 955 0 9 -- Chart
1965 8 21 18 32.5 137.4 960 0 9 -- Chart
1965 8 22 00 33.4 137.5 965 0 9 -- Chart
1965 8 22 06 34.2 138.0 970 0 9 -- Chart
1965 8 22 12 34.9 138.9 970 0 9 -- Chart
1965 8 22 18 35.5 139.6 990 0 9 -- Chart
1965 8 23 00 36.2 141.0 996 0 2 -- Chart
1965 8 23 06 37.2 142.6 996 0 2 -- Chart
1965 8 23 12 37.7 144.2 998 0 2 -- Chart
1965 8 23 18 38.5 146.0 998 0 2 -- Chart
1965 8 24 00 39.1 148.1 1000 0 2 -- Chart
1965 8 24 06 39.6 150.6 996 0 6 -- Chart
1965 8 24 12 39.8 152.8 998 0 6 -- Chart
1965 8 24 18 40.0 155.0 998 0 6 -- Chart
1965 8 25 00 40.1 157.0 1002 0 6 -- Chart
1965 8 25 06 40.2 158.1 1002 0 6 -- Chart
1965 8 25 12 40.5 159.0 1002 0 6 -- Chart
1965 8 25 18 41.0 159.9 1004 0 6 -- Chart
1965 8 26 00 42.0 160.0 1004 0 6 -- Chart
1965 8 26 06 42.5 160.0 1004 0 6 -- Chart
Japan Meteorological Agency Best Track Data | Correction Date : 1989-06-01
< Typhoon 196516 1965 Season Typhoon 196518 >

Help